KBVSKAST

Guest
Details From KBVS - SKAGIT RGNL
To KAST - Astoria Rgnl
Flight Number -
Tags generated
Created
Modified
Stats Distance 151 nm / 280 km
Max Altitude 10,100 ft / 3,078 m
Waypoints 3
Social Downloads 0
Likes 0
Share VATSIM

Download

Looking for another format? Having issues loading an existing format? Contact us
Advertisement - Login to hide

Notes

Basic altitude profile: - Ascent Rate: 2500ft/min - Ascent Speed: 100kts - Cruise Altitude: 10500ft - Cruise Speed: 150kts - Descent Rate: 1500ft/min - Descent Speed: 150kts Options: - Use NATs: no - Use PACOTS: no - Use low airways: yes - Use high airways: no

Route

KBVS SOUPY KAST

ID Type Via Altitude Latitude Longitude Leg Dist Tot Dist Heading (true) Name
O KBVS APT - 0 ft / 0 m 48.46986˚ -122.42046˚ - 0 nm - SKAGIT RGNL
SOUPY FIX - 10,100 ft / 3,078 m 46.96308˚ -123.41975˚ 99 nm 99 nm 204° / 204° -
O KAST APT - 0 ft / 0 m 46.15789˚ -123.87872˚ 51 nm 151 nm 202° / 201° Astoria Rgnl

Altitude Profile

Advertisement - Login to hide

KBVS

Details ICAO KBVS
Name SKAGIT RGNL
Region United States
Timezone America/Los_Angeles (UTC-8.0)
Stats Elevation 144 ft / 44 m (AMSL)
Location 48.469859° -122.420457°
Runways 2
Magnetic Variation 15.951° E

METAR

KBVS 170235Z AUTO 07003KT 10SM BKN021 OVC050 05/04 A3027 RMK A01

Decode

TAF

Not found

Departure Runways

ID Width Length Bearing (true) Bearing (mag) Surface Threshold Offset Overrun Length
04 59 ft / 18 m 2,995 ft / 913 m 56.37° 40.42° Asphalt 0 ft / 0 m 39 ft / 12 m
10 98 ft / 30 m 5,468 ft / 1,667 m 126.51° 110.56° Asphalt 0 ft / 0 m 0 ft / 0 m
22 59 ft / 18 m 2,995 ft / 913 m 236.38° 220.43° Asphalt 0 ft / 0 m 39 ft / 12 m
28 98 ft / 30 m 5,468 ft / 1,667 m 306.53° 290.58° Asphalt 0 ft / 0 m 10 ft / 3 m

KAST

Details ICAO KAST (AST)
Name Astoria Rgnl
Region United States
Timezone America/Los_Angeles (UTC-8.0)
Stats Elevation 15 ft / 5 m (AMSL)
Location 46.157894° -123.878724°
Runways 2
Magnetic Variation 15.635° E

METAR

KAST 170155Z AUTO 00000KT 5SM BR FEW016 SCT022 OVC029 07/06 A3028 RMK AO2 CIG 023 RWY 08 SLP254 T00670061

Decode

TAF

TAF KAST 162350Z 1700/1724 VRB04KT P6SM SCT015 SCT025 OVC045 TEMPO 1700/1704 BKN025 FM170500 18009KT 3SM -RA BR BKN015 OVC040 FM171900 22008KT 5SM BR OVC015

Decode

Destination Runways

ID Width Length Bearing (true) Bearing (mag) Surface Threshold Offset Overrun Length
08 98 ft / 30 m 5,779 ft / 1,762 m 95.49° 79.86° Asphalt 302 ft / 92 m 0 ft / 0 m
13 98 ft / 30 m 4,997 ft / 1,523 m 153.70° 138.07° Asphalt 328 ft / 100 m 0 ft / 0 m
26 98 ft / 30 m 5,779 ft / 1,762 m 275.51° 259.88° Asphalt 705 ft / 215 m 0 ft / 0 m
31 98 ft / 30 m 4,997 ft / 1,523 m 333.70° 318.07° Asphalt 203 ft / 62 m 0 ft / 0 m

Approach Navaids

Runway Type Ident Frequency Range Bearing (true) Bearing (mag) Slope Elevation
26 Localiser IAST 109.50 MHz 18 nm / 33 km 275.50° 259.87° - 15 ft / 5 m (AMSL)
26 Glidescope IAST 109.50 MHz 10 nm / 19 km 275.50° 259.87° 3.00° 15 ft / 5 m (AMSL)